F/V St-alour — FGTB — position and weather

sailwx.info

Track history (hours):
 
Tides and Currents Weather Stations Pressure Air Temp Water Temp Dewpoint Dewpoint Depression Visibility Wind Speed Wind Dir Waves Ship Positions

F/V St-alour

Last reported at 2017-Nov-23 07:13 UTC. Time now 2017-Nov-24 09:41 UTC.
Position N 47°50' W 004°10'.

Length 24 m.

Type: Fishing. MMSI: 227397000.

Date/timePositionNaut miles runAvg speedWind from/ knotsBaromVisibWave heightAir tempDewpointWater temp
2017-Nov-23 07:13N 47°50' W 004°10'1 1.5
2017-Nov-23 06:53N 47°50' W 004°09'4 6.7
2017-Nov-23 06:18N 47°46' W 004°09'5 6.4
2017-Nov-23 05:33N 47°45' W 004°16'1 8.4
2017-Nov-23 05:27N 47°45' W 004°17'4 7.9
2017-Nov-23 05:00N 47°45' W 004°23'4 7.7
2017-Nov-23 04:29N 47°45' W 004°29'3 6.9
2017-Nov-23 04:00N 47°45' W 004°34'3 6.1
2017-Nov-23 03:28N 47°45' W 004°38'3 5.8
2017-Nov-23 02:59N 47°45' W 004°43'3 5.8
2017-Nov-23 02:25N 47°45' W 004°47'3 5.9
2017-Nov-23 01:59N 47°45' W 004°51'3 5.6
2017-Nov-23 01:31N 47°45' W 004°55'3 5.2
2017-Nov-23 01:01N 47°45' W 004°59'2 4.8
2017-Nov-23 00:30N 47°46' W 005°03'1 2.4
2017-Nov-23 00:00N 47°45' W 005°04'1 2.8
2017-Nov-22 23:29N 47°45' W 005°07'1 2.9
2017-Nov-22 23:01N 47°45' W 005°09'1 2.9
2017-Nov-22 22:31N 47°45' W 005°11'9 2.6
2017-Nov-22 19:15N 47°49' W 005°22'  
2017-Nov-19 23:42N 48°02' W 005°43'2 3.0
2017-Nov-19 22:57N 47°60' W 005°42'2 2.9
2017-Nov-19 22:20N 47°58' W 005°42'2 2.8
2017-Nov-19 21:47N 47°57' W 005°41'1 2.4
2017-Nov-19 21:23N 47°56' W 005°42'1 2.5
2017-Nov-19 21:00N 47°55' W 005°43'1 1.1
2017-Nov-19 20:25N 47°55' W 005°43'2 2.9
2017-Nov-19 19:50N 47°54' W 005°40'1 3.0
2017-Nov-19 19:21N 47°54' W 005°38'1 1.8
2017-Nov-19 18:42N 47°53' W 005°38'1 2.8
2017-Nov-19 18:30N 47°53' W 005°39'3 1.5
2017-Nov-19 16:41N 47°56' W 005°40'4 0.9
2017-Nov-19 11:54N 47°52' W 005°40'3 3.0
2017-Nov-19 10:58N 47°49' W 005°43'5 2.1
2017-Nov-19 08:40N 47°54' W 005°41'2 0.5
2017-Nov-19 04:13N 47°55' W 005°39'2 0.8
2017-Nov-19 01:54N 47°56' W 005°42'2 3.5
2017-Nov-19 01:17N 47°54' W 005°43'1 3.6
2017-Nov-19 01:00N 47°53' W 005°43'3 1.7
2017-Nov-18 23:27N 47°53' W 005°39'17 2.4
2017-Nov-18 16:25N 48°10' W 005°40'2 3.1
2017-Nov-18 15:38N 48°07' W 005°39'1 4.2
2017-Nov-18 15:21N 48°06' W 005°39'2 1.9
2017-Nov-18 14:30N 48°05' W 005°40'4 3.6
2017-Nov-18 13:25N 48°01' W 005°41'8 2.5
2017-Nov-18 10:05N 47°53' W 005°46'6 2.4
2017-Nov-18 07:46N 47°54' W 005°38'1 2.4
2017-Nov-18 07:27N 47°53' W 005°38'1 2.4
2017-Nov-18 07:00N 47°52' W 005°39'1 2.5
2017-Nov-18 06:26N 47°51' W 005°40'3 2.5
2017-Nov-18 05:11N 47°54' W 005°42'3 1.7
2017-Nov-18 03:27N 47°54' W 005°38'3 1.1
2017-Nov-18 00:37N 47°56' W 005°40'3 3.0
2017-Nov-17 23:30N 47°54' W 005°37'2 2.9
2017-Nov-17 22:58N 47°53' W 005°39'2 2.6
2017-Nov-17 22:20N 47°54' W 005°41'1 2.5
2017-Nov-17 21:57N 47°54' W 005°43'2 2.9
2017-Nov-17 21:25N 47°56' W 005°42'1 3.1
2017-Nov-17 21:00N 47°56' W 005°40'1 2.7
2017-Nov-17 20:29N 47°56' W 005°39'2 2.8
2017-Nov-17 19:55N 47°54' W 005°37'1 2.5
2017-Nov-17 19:30N 47°53' W 005°36'1 2.4
2017-Nov-17 19:01N 47°53' W 005°38'1 2.8
2017-Nov-17 18:29N 47°53' W 005°40'2 2.8
2017-Nov-17 17:43N 47°55' W 005°42'4 2.1
2017-Nov-17 16:02N 47°54' W 005°37'0 1.4
2017-Nov-17 16:00N 47°54' W 005°37'2 2.9
2017-Nov-17 15:23N 47°53' W 005°39'2 0.9
2017-Nov-17 12:56N 47°56' W 005°39'2 2.8
2017-Nov-17 12:05N 47°53' W 005°37'0 3.4
2017-Nov-17 11:57N 47°53' W 005°38'1 3.4
2017-Nov-17 11:30N 47°52' W 005°40'1 0.2
2017-Nov-17 05:32N 47°53' W 005°39'9 1.7
2017-Nov-17 00:13N 47°50' W 005°27'5 2.8
2017-Nov-16 22:26N 47°53' W 005°33'2 2.4
2017-Nov-16 21:42N 47°51' W 005°31'2 3.1
2017-Nov-16 21:00N 47°51' W 005°28'1 2.8
2017-Nov-16 20:30N 47°50' W 005°27'0 0.8
2017-Nov-16 19:59N 47°49' W 005°27'2 2.8
2017-Nov-16 19:25N 47°50' W 005°29'3 3.3
2017-Nov-16 18:30N 47°51' W 005°33'8 2.9
2017-Nov-16 15:42N 47°58' W 005°39'2 7.5
2017-Nov-16 15:26N 47°58' W 005°36'1 1.9
2017-Nov-16 14:47N 47°57' W 005°37'1 2.8
2017-Nov-16 14:19N 47°56' W 005°37'2 2.9
2017-Nov-16 13:31N 47°54' W 005°35'3 0.5
2017-Nov-16 07:45N 47°54' W 005°39'5 2.8
2017-Nov-16 06:03N 47°52' W 005°33'3 2.7
2017-Nov-16 04:52N 47°50' W 005°29'1 2.7
2017-Nov-16 04:30N 47°49' W 005°28'2 2.4
2017-Nov-16 03:38N 47°51' W 005°28'3 3.3
2017-Nov-16 02:42N 47°53' W 005°31'6 2.8
2017-Nov-16 00:28N 47°55' W 005°40'2 2.9
2017-Nov-15 23:45N 47°54' W 005°38'1 3.1
2017-Nov-15 23:30N 47°54' W 005°37'2 3.2
2017-Nov-15 23:00N 47°53' W 005°35'3 3.2
2017-Nov-15 22:04N 47°51' W 005°31'0 2.9
2017-Nov-15 22:00N 47°51' W 005°31'3 3.0
2017-Nov-15 21:07N 47°50' W 005°27'2 2.1
2017-Nov-15 20:01N 47°52' W 005°29'1 2.9
2017-Nov-15 19:44N 47°52' W 005°30'1 3.0
2017-Nov-15 19:24N 47°53' W 005°31'2 4.7
2017-Nov-15 18:58N 47°54' W 005°28'1 1.8
2017-Nov-15 18:28N 47°53' W 005°27'1 2.7
2017-Nov-15 17:57N 47°52' W 005°26'1 2.7
2017-Nov-15 17:26N 47°51' W 005°25'1 2.7
2017-Nov-15 16:59N 47°50' W 005°23'1 2.6
2017-Nov-15 16:29N 47°49' W 005°22'2 4.1
2017-Nov-15 15:56N 47°47' W 005°21'7 2.4
2017-Nov-15 13:07N 47°53' W 005°26'1 3.1
2017-Nov-15 12:41N 47°54' W 005°28'3 2.9
2017-Nov-15 11:33N 47°55' W 005°32'4 2.9
2017-Nov-15 10:20N 47°56' W 005°37'3 2.8
2017-Nov-15 09:21N 47°57' W 005°41'1 2.5
2017-Nov-15 08:56N 47°56' W 005°40'3 3.2
2017-Nov-15 08:06N 47°55' W 005°36'6 3.0
2017-Nov-15 05:56N 47°52' W 005°28'2 2.6
2017-Nov-15 05:15N 47°50' W 005°26'1 2.7
2017-Nov-15 04:57N 47°50' W 005°25'2 2.7
2017-Nov-15 04:13N 47°49' W 005°23'2 2.5
2017-Nov-15 03:35N 47°48' W 005°21'0 4.3
2017-Nov-15 03:28N 47°47' W 005°21'1 2.1
2017-Nov-15 02:53N 47°46' W 005°21'2 2.9
2017-Nov-15 02:16N 47°45' W 005°24'1 2.6
2017-Nov-15 01:53N 47°46' W 005°25'1 2.9
2017-Nov-15 01:28N 47°47' W 005°24'1 2.1
2017-Nov-15 00:52N 47°48' W 005°23'1 2.6
2017-Nov-15 00:17N 47°46' W 005°21'1 3.4
2017-Nov-14 23:59N 47°46' W 005°22'2 1.5
2017-Nov-14 22:24N 47°48' W 005°23'2 2.9
2017-Nov-14 21:48N 47°47' W 005°21'1 3.3
2017-Nov-14 21:30N 47°46' W 005°22'8 1.3
2017-Nov-14 15:39N 47°53' W 005°27'1 3.8
2017-Nov-14 15:22N 47°53' W 005°28'1 1.7
2017-Nov-14 14:59N 47°53' W 005°29'1 0.2
2017-Nov-14 09:08N 47°53' W 005°27'1 3.1
2017-Nov-14 08:58N 47°53' W 005°28'2 2.4
2017-Nov-14 08:01N 47°51' W 005°27'4 2.8
2017-Nov-14 06:38N 47°49' W 005°22'1 2.5
2017-Nov-14 06:22N 47°48' W 005°21'1 2.4
2017-Nov-14 05:54N 47°47' W 005°21'1 2.5
2017-Nov-14 05:23N 47°47' W 005°23'2 3.1
2017-Nov-14 04:38N 47°49' W 005°26'1 3.1
2017-Nov-14 04:26N 47°49' W 005°27'1 3.1
2017-Nov-14 04:00N 47°50' W 005°26'2 2.8
2017-Nov-14 03:28N 47°50' W 005°24'1 1.5
2017-Nov-14 02:57N 47°49' W 005°23'1 2.7
2017-Nov-14 02:28N 47°49' W 005°22'1 2.5
2017-Nov-14 01:55N 47°47' W 005°21'2 2.8
2017-Nov-14 01:19N 47°46' W 005°22'5 2.3
2017-Nov-13 23:03N 47°50' W 005°26'1 2.9
2017-Nov-13 22:41N 47°50' W 005°25'1 2.9
2017-Nov-13 22:18N 47°49' W 005°23'  
Track history (hours):
 
Tides and Currents Weather Stations Pressure Air Temp Water Temp Dewpoint Dewpoint Depression Visibility Wind Speed Wind Dir Waves Ship Positions

F/V St-alour

Last reported at 2017-Nov-23 07:13 UTC. Time now 2017-Nov-24 09:41 UTC.
Position N 47°50' W 004°10'.

Length 24 m.

Type: Fishing. MMSI: 227397000.

Date/timePositionNaut miles runAvg speedWind from/ knotsBaromVisibWave heightAir tempDewpointWater temp
2017-Nov-23 07:13N 47°50' W 004°10'1 1.5
2017-Nov-23 06:53N 47°50' W 004°09'4 6.7
2017-Nov-23 06:18N 47°46' W 004°09'5 6.4
2017-Nov-23 05:33N 47°45' W 004°16'1 8.4
2017-Nov-23 05:27N 47°45' W 004°17'4 7.9
2017-Nov-23 05:00N 47°45' W 004°23'4 7.7
2017-Nov-23 04:29N 47°45' W 004°29'3 6.9
2017-Nov-23 04:00N 47°45' W 004°34'3 6.1
2017-Nov-23 03:28N 47°45' W 004°38'3 5.8
2017-Nov-23 02:59N 47°45' W 004°43'3 5.8
2017-Nov-23 02:25N 47°45' W 004°47'3 5.9
2017-Nov-23 01:59N 47°45' W 004°51'3 5.6
2017-Nov-23 01:31N 47°45' W 004°55'3 5.2
2017-Nov-23 01:01N 47°45' W 004°59'2 4.8
2017-Nov-23 00:30N 47°46' W 005°03'1 2.4
2017-Nov-23 00:00N 47°45' W 005°04'1 2.8
2017-Nov-22 23:29N 47°45' W 005°07'1 2.9
2017-Nov-22 23:01N 47°45' W 005°09'1 2.9
2017-Nov-22 22:31N 47°45' W 005°11'9 2.6
2017-Nov-22 19:15N 47°49' W 005°22'  
2017-Nov-19 23:42N 48°02' W 005°43'2 3.0
2017-Nov-19 22:57N 47°60' W 005°42'2 2.9
2017-Nov-19 22:20N 47°58' W 005°42'2 2.8
2017-Nov-19 21:47N 47°57' W 005°41'1 2.4
2017-Nov-19 21:23N 47°56' W 005°42'1 2.5
2017-Nov-19 21:00N 47°55' W 005°43'1 1.1
2017-Nov-19 20:25N 47°55' W 005°43'2 2.9
2017-Nov-19 19:50N 47°54' W 005°40'1 3.0
2017-Nov-19 19:21N 47°54' W 005°38'1 1.8
2017-Nov-19 18:42N 47°53' W 005°38'1 2.8
2017-Nov-19 18:30N 47°53' W 005°39'3 1.5
2017-Nov-19 16:41N 47°56' W 005°40'4 0.9
2017-Nov-19 11:54N 47°52' W 005°40'3 3.0
2017-Nov-19 10:58N 47°49' W 005°43'5 2.1
2017-Nov-19 08:40N 47°54' W 005°41'2 0.5
2017-Nov-19 04:13N 47°55' W 005°39'2 0.8
2017-Nov-19 01:54N 47°56' W 005°42'2 3.5
2017-Nov-19 01:17N 47°54' W 005°43'1 3.6
2017-Nov-19 01:00N 47°53' W 005°43'3 1.7
2017-Nov-18 23:27N 47°53' W 005°39'17 2.4
2017-Nov-18 16:25N 48°10' W 005°40'2 3.1
2017-Nov-18 15:38N 48°07' W 005°39'1 4.2
2017-Nov-18 15:21N 48°06' W 005°39'2 1.9
2017-Nov-18 14:30N 48°05' W 005°40'4 3.6
2017-Nov-18 13:25N 48°01' W 005°41'8 2.5
2017-Nov-18 10:05N 47°53' W 005°46'6 2.4
2017-Nov-18 07:46N 47°54' W 005°38'1 2.4
2017-Nov-18 07:27N 47°53' W 005°38'1 2.4
2017-Nov-18 07:00N 47°52' W 005°39'1 2.5
2017-Nov-18 06:26N 47°51' W 005°40'3 2.5
2017-Nov-18 05:11N 47°54' W 005°42'3 1.7
2017-Nov-18 03:27N 47°54' W 005°38'3 1.1
2017-Nov-18 00:37N 47°56' W 005°40'3 3.0
2017-Nov-17 23:30N 47°54' W 005°37'2 2.9
2017-Nov-17 22:58N 47°53' W 005°39'2 2.6
2017-Nov-17 22:20N 47°54' W 005°41'1 2.5
2017-Nov-17 21:57N 47°54' W 005°43'2 2.9
2017-Nov-17 21:25N 47°56' W 005°42'1 3.1
2017-Nov-17 21:00N 47°56' W 005°40'1 2.7
2017-Nov-17 20:29N 47°56' W 005°39'2 2.8
2017-Nov-17 19:55N 47°54' W 005°37'1 2.5
2017-Nov-17 19:30N 47°53' W 005°36'1 2.4
2017-Nov-17 19:01N 47°53' W 005°38'1 2.8
2017-Nov-17 18:29N 47°53' W 005°40'2 2.8
2017-Nov-17 17:43N 47°55' W 005°42'4 2.1
2017-Nov-17 16:02N 47°54' W 005°37'0 1.4
2017-Nov-17 16:00N 47°54' W 005°37'2 2.9
2017-Nov-17 15:23N 47°53' W 005°39'2 0.9
2017-Nov-17 12:56N 47°56' W 005°39'2 2.8
2017-Nov-17 12:05N 47°53' W 005°37'0 3.4
2017-Nov-17 11:57N 47°53' W 005°38'1 3.4
2017-Nov-17 11:30N 47°52' W 005°40'1 0.2
2017-Nov-17 05:32N 47°53' W 005°39'9 1.7
2017-Nov-17 00:13N 47°50' W 005°27'5 2.8
2017-Nov-16 22:26N 47°53' W 005°33'2 2.4
2017-Nov-16 21:42N 47°51' W 005°31'2 3.1
2017-Nov-16 21:00N 47°51' W 005°28'1 2.8
2017-Nov-16 20:30N 47°50' W 005°27'0 0.8
2017-Nov-16 19:59N 47°49' W 005°27'2 2.8
2017-Nov-16 19:25N 47°50' W 005°29'3 3.3
2017-Nov-16 18:30N 47°51' W 005°33'8 2.9
2017-Nov-16 15:42N 47°58' W 005°39'2 7.5
2017-Nov-16 15:26N 47°58' W 005°36'1 1.9
2017-Nov-16 14:47N 47°57' W 005°37'1 2.8
2017-Nov-16 14:19N 47°56' W 005°37'2 2.9
2017-Nov-16 13:31N 47°54' W 005°35'3 0.5
2017-Nov-16 07:45N 47°54' W 005°39'5 2.8
2017-Nov-16 06:03N 47°52' W 005°33'3 2.7
2017-Nov-16 04:52N 47°50' W 005°29'1 2.7
2017-Nov-16 04:30N 47°49' W 005°28'2 2.4
2017-Nov-16 03:38N 47°51' W 005°28'3 3.3
2017-Nov-16 02:42N 47°53' W 005°31'6 2.8
2017-Nov-16 00:28N 47°55' W 005°40'2 2.9
2017-Nov-15 23:45N 47°54' W 005°38'1 3.1
2017-Nov-15 23:30N 47°54' W 005°37'2 3.2
2017-Nov-15 23:00N 47°53' W 005°35'3 3.2
2017-Nov-15 22:04N 47°51' W 005°31'0 2.9
2017-Nov-15 22:00N 47°51' W 005°31'3 3.0
2017-Nov-15 21:07N 47°50' W 005°27'2 2.1
2017-Nov-15 20:01N 47°52' W 005°29'1 2.9
2017-Nov-15 19:44N 47°52' W 005°30'1 3.0
2017-Nov-15 19:24N 47°53' W 005°31'2 4.7
2017-Nov-15 18:58N 47°54' W 005°28'1 1.8
2017-Nov-15 18:28N 47°53' W 005°27'1 2.7
2017-Nov-15 17:57N 47°52' W 005°26'1 2.7
2017-Nov-15 17:26N 47°51' W 005°25'1 2.7
2017-Nov-15 16:59N 47°50' W 005°23'1 2.6
2017-Nov-15 16:29N 47°49' W 005°22'2 4.1
2017-Nov-15 15:56N 47°47' W 005°21'7 2.4
2017-Nov-15 13:07N 47°53' W 005°26'1 3.1
2017-Nov-15 12:41N 47°54' W 005°28'3 2.9
2017-Nov-15 11:33N 47°55' W 005°32'4 2.9
2017-Nov-15 10:20N 47°56' W 005°37'3 2.8
2017-Nov-15 09:21N 47°57' W 005°41'1 2.5
2017-Nov-15 08:56N 47°56' W 005°40'3 3.2
2017-Nov-15 08:06N 47°55' W 005°36'6 3.0
2017-Nov-15 05:56N 47°52' W 005°28'2 2.6
2017-Nov-15 05:15N 47°50' W 005°26'1 2.7
2017-Nov-15 04:57N 47°50' W 005°25'2 2.7
2017-Nov-15 04:13N 47°49' W 005°23'2 2.5
2017-Nov-15 03:35N 47°48' W 005°21'0 4.3
2017-Nov-15 03:28N 47°47' W 005°21'1 2.1
2017-Nov-15 02:53N 47°46' W 005°21'2 2.9
2017-Nov-15 02:16N 47°45' W 005°24'1 2.6
2017-Nov-15 01:53N 47°46' W 005°25'1 2.9
2017-Nov-15 01:28N 47°47' W 005°24'1 2.1
2017-Nov-15 00:52N 47°48' W 005°23'1 2.6
2017-Nov-15 00:17N 47°46' W 005°21'1 3.4
2017-Nov-14 23:59N 47°46' W 005°22'2 1.5
2017-Nov-14 22:24N 47°48' W 005°23'2 2.9
2017-Nov-14 21:48N 47°47' W 005°21'1 3.3
2017-Nov-14 21:30N 47°46' W 005°22'8 1.3
2017-Nov-14 15:39N 47°53' W 005°27'1 3.8
2017-Nov-14 15:22N 47°53' W 005°28'1 1.7
2017-Nov-14 14:59N 47°53' W 005°29'1 0.2
2017-Nov-14 09:08N 47°53' W 005°27'1 3.1
2017-Nov-14 08:58N 47°53' W 005°28'2 2.4
2017-Nov-14 08:01N 47°51' W 005°27'4 2.8
2017-Nov-14 06:38N 47°49' W 005°22'1 2.5
2017-Nov-14 06:22N 47°48' W 005°21'1 2.4
2017-Nov-14 05:54N 47°47' W 005°21'1 2.5
2017-Nov-14 05:23N 47°47' W 005°23'2 3.1
2017-Nov-14 04:38N 47°49' W 005°26'1 3.1
2017-Nov-14 04:26N 47°49' W 005°27'1 3.1
2017-Nov-14 04:00N 47°50' W 005°26'2 2.8
2017-Nov-14 03:28N 47°50' W 005°24'1 1.5
2017-Nov-14 02:57N 47°49' W 005°23'1 2.7
2017-Nov-14 02:28N 47°49' W 005°22'1 2.5
2017-Nov-14 01:55N 47°47' W 005°21'2 2.8
2017-Nov-14 01:19N 47°46' W 005°22'5 2.3
2017-Nov-13 23:03N 47°50' W 005°26'1 2.9
2017-Nov-13 22:41N 47°50' W 005°25'1 2.9
2017-Nov-13 22:18N 47°49' W 005°23'  

Dump ship's entire track history